N69AP KFRR-KOFP
Flight info
| Callsign | N69AP |
|---|---|
| Flight time | 0h 40m |
| Altitude | 5000 |
| Route | DIRECT |
| Aircraft | L28A/L-VGD/C |
Departure
| Time | 2026-05-06 22:35 |
|---|---|
| Airport | Front Royal Warren County Airport (KFRR) |
Arrival
| Time | 2026-05-06 23:15 |
|---|---|
| Airport | Hanover County Municipal Airport (KOFP) |
| Time | Latitude | Longitude | Altitude | Speed | Heading |
|---|---|---|---|---|---|
| 2026-05-06 22:34 | 38.90375 | -78.23439 | 4504 ft | 93 kts | 276° |
| 2026-05-06 22:35 | 38.90280 | -78.24255 | 4537 ft | 100 kts | 245° |
| 2026-05-06 22:35 | 38.89865 | -78.25010 | 4562 ft | 107 kts | 228° |
| 2026-05-06 22:35 | 38.89190 | -78.25452 | 4548 ft | 123 kts | 191° |
| 2026-05-06 22:35 | 38.88385 | -78.24917 | 4541 ft | 146 kts | 140° |
| 2026-05-06 22:36 | 38.87980 | -78.23647 | 4522 ft | 161 kts | 99° |
| 2026-05-06 22:36 | 38.88262 | -78.22261 | 4524 ft | 164 kts | 52° |
| 2026-05-06 22:36 | 38.89158 | -78.21471 | 4526 ft | 150 kts | 9° |
| 2026-05-06 22:36 | 38.90107 | -78.21520 | 4684 ft | 125 kts | 331° |
| 2026-05-06 22:37 | 38.90554 | -78.22224 | 4912 ft | 99 kts | 270° |
| 2026-05-06 22:37 | 38.90132 | -78.22882 | 4994 ft | 109 kts | 201° |
| 2026-05-06 22:37 | 38.89338 | -78.22756 | 5002 ft | 126 kts | 169° |
| 2026-05-06 22:37 | 38.88527 | -78.22249 | 5043 ft | 126 kts | 168° |
| 2026-05-06 22:38 | 38.87714 | -78.21712 | 5028 ft | 139 kts | 161° |
| 2026-05-06 22:38 | 38.86833 | -78.21112 | 5028 ft | 141 kts | 164° |
| 2026-05-06 22:38 | 38.85955 | -78.20674 | 5060 ft | 133 kts | 169° |
| 2026-05-06 22:38 | 38.85064 | -78.20307 | 5066 ft | 135 kts | 171° |
| 2026-05-06 22:39 | 38.84468 | -78.20007 | 5023 ft | 136 kts | 169° |
| 2026-05-06 22:39 | 38.83600 | -78.19562 | 4964 ft | 136 kts | 164° |
| 2026-05-06 22:39 | 38.82739 | -78.19145 | 5056 ft | 132 kts | 171° |
| 2026-05-06 22:39 | 38.81862 | -78.18739 | 5004 ft | 137 kts | 169° |
| 2026-05-06 22:40 | 38.80960 | -78.18305 | 4989 ft | 140 kts | 169° |
| 2026-05-06 22:40 | 38.80072 | -78.17884 | 5082 ft | 132 kts | 171° |
| 2026-05-06 22:40 | 38.79216 | -78.17496 | 4978 ft | 133 kts | 169° |
| 2026-05-06 22:40 | 38.78381 | -78.17088 | 4990 ft | 123 kts | 175° |
| 2026-05-06 22:41 | 38.76819 | -78.15997 | 5102 ft | 120 kts | 167° |
| 2026-05-06 22:41 | 38.76017 | -78.15630 | 5164 ft | 120 kts | 184° |
| 2026-05-06 22:41 | 38.75161 | -78.15420 | 5049 ft | 134 kts | 175° |
| 2026-05-06 22:42 | 38.74287 | -78.15064 | 4911 ft | 133 kts | 167° |
| 2026-05-06 22:42 | 38.73475 | -78.14640 | 5042 ft | 122 kts | 174° |
| 2026-05-06 22:42 | 38.72668 | -78.14254 | 5003 ft | 129 kts | 172° |
| 2026-05-06 22:42 | 38.71835 | -78.13806 | 4944 ft | 125 kts | 168° |
| 2026-05-06 22:43 | 38.71042 | -78.13414 | 4980 ft | 125 kts | 173° |
| 2026-05-06 22:43 | 38.70221 | -78.13009 | 5006 ft | 127 kts | 169° |
| 2026-05-06 22:43 | 38.69398 | -78.12549 | 4998 ft | 131 kts | 162° |
| 2026-05-06 22:43 | 38.68611 | -78.11961 | 5010 ft | 132 kts | 161° |
| 2026-05-06 22:44 | 38.67807 | -78.11380 | 4991 ft | 132 kts | 162° |
| 2026-05-06 22:44 | 38.67027 | -78.10823 | 5094 ft | 125 kts | 165° |
| 2026-05-06 22:44 | 38.66219 | -78.10318 | 5024 ft | 133 kts | 165° |
| 2026-05-06 22:44 | 38.65404 | -78.09756 | 5001 ft | 132 kts | 163° |
| 2026-05-06 22:45 | 38.64622 | -78.09225 | 5071 ft | 128 kts | 162° |
| 2026-05-06 22:45 | 38.63824 | -78.08682 | 5025 ft | 133 kts | 163° |
| 2026-05-06 22:45 | 38.63011 | -78.08102 | 5007 ft | 133 kts | 161° |
| 2026-05-06 22:45 | 38.62205 | -78.07517 | 5014 ft | 134 kts | 162° |
| 2026-05-06 22:46 | 38.61384 | -78.06930 | 5019 ft | 137 kts | 161° |
| 2026-05-06 22:46 | 38.60553 | -78.06321 | 5006 ft | 139 kts | 161° |
| 2026-05-06 22:46 | 38.59717 | -78.05714 | 5013 ft | 137 kts | 161° |
| 2026-05-06 22:46 | 38.58903 | -78.05118 | 5040 ft | 133 kts | 162° |
| 2026-05-06 22:47 | 38.58079 | -78.04543 | 5015 ft | 136 kts | 162° |
| 2026-05-06 22:47 | 38.57256 | -78.03955 | 5017 ft | 135 kts | 164° |
| 2026-05-06 22:47 | 38.56429 | -78.03371 | 4983 ft | 141 kts | 160° |
| 2026-05-06 22:47 | 38.55573 | -78.02650 | 4922 ft | 141 kts | 161° |
| 2026-05-06 22:48 | 38.54754 | -78.02131 | 5009 ft | 130 kts | 163° |
| 2026-05-06 22:48 | 38.53947 | -78.01589 | 5019 ft | 125 kts | 169° |
| 2026-05-06 22:48 | 38.53177 | -78.01167 | 5102 ft | 124 kts | 165° |
| 2026-05-06 22:48 | 38.52409 | -78.00598 | 5048 ft | 132 kts | 162° |
| 2026-05-06 22:49 | 38.51612 | -78.00050 | 5070 ft | 131 kts | 163° |
| 2026-05-06 22:49 | 38.50782 | -77.99478 | 5006 ft | 137 kts | 163° |
| 2026-05-06 22:49 | 38.49955 | -77.98873 | 4990 ft | 137 kts | 161° |
| 2026-05-06 22:49 | 38.49158 | -77.98212 | 5041 ft | 136 kts | 155° |
| 2026-05-06 22:50 | 38.48325 | -77.97599 | 5029 ft | 139 kts | 163° |
| 2026-05-06 22:50 | 38.47499 | -77.96991 | 5093 ft | 138 kts | 157° |
| 2026-05-06 22:50 | 38.46681 | -77.96396 | 5069 ft | 134 kts | 173° |
| 2026-05-06 22:50 | 38.45790 | -77.96085 | 5024 ft | 133 kts | 175° |
| 2026-05-06 22:51 | 38.44947 | -77.95490 | 5091 ft | 137 kts | 158° |
| 2026-05-06 22:51 | 38.44134 | -77.94797 | 5019 ft | 148 kts | 153° |
| 2026-05-06 22:51 | 38.43313 | -77.94047 | 5129 ft | 137 kts | 157° |
| 2026-05-06 22:51 | 38.42477 | -77.93403 | 4983 ft | 147 kts | 161° |
| 2026-05-06 22:52 | 38.41625 | -77.92806 | 5105 ft | 129 kts | 171° |
| 2026-05-06 22:52 | 38.40794 | -77.92414 | 5014 ft | 139 kts | 159° |
| 2026-05-06 22:52 | 38.40029 | -77.91686 | 5007 ft | 132 kts | 158° |
| 2026-05-06 22:52 | 38.39241 | -77.91109 | 5058 ft | 127 kts | 168° |
| 2026-05-06 22:53 | 38.38405 | -77.90670 | 5026 ft | 130 kts | 171° |
| 2026-05-06 22:53 | 38.37572 | -77.90177 | 5041 ft | 136 kts | 162° |
| 2026-05-06 22:53 | 38.36741 | -77.89519 | 5007 ft | 139 kts | 158° |
| 2026-05-06 22:53 | 38.35941 | -77.88899 | 5059 ft | 134 kts | 164° |
| 2026-05-06 22:54 | 38.35093 | -77.88354 | 5011 ft | 139 kts | 165° |
| 2026-05-06 22:54 | 38.34229 | -77.87752 | 4960 ft | 143 kts | 162° |
| 2026-05-06 22:54 | 38.33365 | -77.87107 | 4928 ft | 141 kts | 163° |
| 2026-05-06 22:54 | 38.32533 | -77.86513 | 4964 ft | 136 kts | 163° |
| 2026-05-06 22:55 | 38.31701 | -77.85940 | 4958 ft | 137 kts | 163° |
| 2026-05-06 22:55 | 38.30863 | -77.85363 | 4952 ft | 138 kts | 163° |
| 2026-05-06 22:55 | 38.30010 | -77.84773 | 4953 ft | 137 kts | 163° |
| 2026-05-06 22:55 | 38.29178 | -77.84194 | 4957 ft | 139 kts | 163° |
| 2026-05-06 22:56 | 38.28700 | -77.83859 | 4957 ft | 140 kts | 163° |
| 2026-05-06 22:56 | 38.28044 | -77.83400 | 4956 ft | 140 kts | 163° |
| 2026-05-06 22:56 | 38.27186 | -77.82799 | 4957 ft | 141 kts | 163° |
| 2026-05-06 22:57 | 38.26324 | -77.82194 | 4956 ft | 142 kts | 163° |
| 2026-05-06 22:57 | 38.25452 | -77.81601 | 4935 ft | 140 kts | 165° |
| 2026-05-06 22:57 | 38.24594 | -77.81032 | 4941 ft | 139 kts | 164° |
| 2026-05-06 22:57 | 38.23747 | -77.80447 | 4938 ft | 139 kts | 160° |
| 2026-05-06 22:58 | 38.22915 | -77.79826 | 4933 ft | 139 kts | 162° |
| 2026-05-06 22:58 | 38.22067 | -77.79245 | 4951 ft | 135 kts | 162° |
| 2026-05-06 22:58 | 38.21256 | -77.78646 | 4970 ft | 137 kts | 161° |
| 2026-05-06 22:58 | 38.20433 | -77.78024 | 4970 ft | 138 kts | 161° |
| 2026-05-06 22:59 | 38.19605 | -77.77418 | 4981 ft | 137 kts | 162° |
| 2026-05-06 22:59 | 38.18742 | -77.76940 | 4980 ft | 131 kts | 174° |
| 2026-05-06 22:59 | 38.17891 | -77.76458 | 5006 ft | 136 kts | 163° |
| 2026-05-06 22:59 | 38.17052 | -77.75837 | 4910 ft | 145 kts | 161° |
| 2026-05-06 23:00 | 38.16197 | -77.75205 | 4969 ft | 134 kts | 157° |
| 2026-05-06 23:00 | 38.15519 | -77.74592 | 5271 ft | 117 kts | 157° |
| 2026-05-06 23:00 | 38.14735 | -77.74059 | 5045 ft | 134 kts | 171° |
| 2026-05-06 23:00 | 38.13865 | -77.73582 | 4956 ft | 139 kts | 167° |
| 2026-05-06 23:01 | 38.13004 | -77.73059 | 4987 ft | 133 kts | 165° |
| 2026-05-06 23:01 | 38.12186 | -77.72462 | 4981 ft | 138 kts | 159° |
| 2026-05-06 23:01 | 38.11347 | -77.71874 | 4961 ft | 137 kts | 164° |
| 2026-05-06 23:01 | 38.10509 | -77.71327 | 4993 ft | 135 kts | 165° |
| 2026-05-06 23:02 | 38.09652 | -77.70792 | 4962 ft | 138 kts | 166° |
| 2026-05-06 23:02 | 38.08786 | -77.70272 | 4950 ft | 139 kts | 165° |
| 2026-05-06 23:02 | 38.07944 | -77.69706 | 4966 ft | 135 kts | 164° |
| 2026-05-06 23:02 | 38.07127 | -77.69128 | 4977 ft | 134 kts | 162° |
| 2026-05-06 23:03 | 38.06307 | -77.68566 | 4977 ft | 136 kts | 164° |
| 2026-05-06 23:03 | 38.05473 | -77.68009 | 4969 ft | 135 kts | 165° |
| 2026-05-06 23:03 | 38.04640 | -77.67444 | 4973 ft | 136 kts | 163° |
| 2026-05-06 23:03 | 38.03800 | -77.66889 | 4993 ft | 136 kts | 164° |
| 2026-05-06 23:04 | 38.02973 | -77.66336 | 4955 ft | 136 kts | 170° |
| 2026-05-06 23:04 | 38.02153 | -77.65817 | 5001 ft | 132 kts | 162° |
| 2026-05-06 23:04 | 38.01346 | -77.65221 | 4946 ft | 136 kts | 162° |
| 2026-05-06 23:04 | 38.00514 | -77.64578 | 4922 ft | 135 kts | 162° |
| 2026-05-06 23:05 | 37.99719 | -77.64041 | 4977 ft | 133 kts | 162° |
| 2026-05-06 23:05 | 37.98896 | -77.63519 | 4995 ft | 131 kts | 168° |
| 2026-05-06 23:05 | 37.98062 | -77.63002 | 4987 ft | 136 kts | 164° |
| 2026-05-06 23:05 | 37.97211 | -77.62469 | 4987 ft | 136 kts | 165° |
| 2026-05-06 23:06 | 37.96352 | -77.61954 | 4997 ft | 137 kts | 164° |
| 2026-05-06 23:06 | 37.95506 | -77.61372 | 4991 ft | 138 kts | 161° |
| 2026-05-06 23:06 | 37.94684 | -77.60779 | 5007 ft | 137 kts | 161° |
| 2026-05-06 23:06 | 37.93849 | -77.60197 | 4965 ft | 138 kts | 166° |
| 2026-05-06 23:07 | 37.93039 | -77.59601 | 5035 ft | 133 kts | 160° |
| 2026-05-06 23:07 | 37.92217 | -77.59049 | 4983 ft | 134 kts | 165° |
| 2026-05-06 23:07 | 37.91390 | -77.58477 | 4967 ft | 136 kts | 162° |
| 2026-05-06 23:07 | 37.90550 | -77.57930 | 4958 ft | 136 kts | 165° |
| 2026-05-06 23:08 | 37.89702 | -77.57376 | 4947 ft | 136 kts | 163° |
| 2026-05-06 23:08 | 37.88870 | -77.56832 | 4965 ft | 134 kts | 166° |
| 2026-05-06 23:08 | 37.88036 | -77.56303 | 4974 ft | 136 kts | 163° |
| 2026-05-06 23:08 | 37.87205 | -77.55734 | 4922 ft | 134 kts | 163° |
| 2026-05-06 23:09 | 37.86416 | -77.55237 | 4896 ft | 124 kts | 167° |
| 2026-05-06 23:09 | 37.85609 | -77.54749 | 4741 ft | 128 kts | 166° |
| 2026-05-06 23:09 | 37.84837 | -77.54160 | 4577 ft | 132 kts | 155° |
| 2026-05-06 23:09 | 37.84131 | -77.53406 | 4397 ft | 134 kts | 151° |
| 2026-05-06 23:10 | 37.83396 | -77.52724 | 4252 ft | 127 kts | 160° |
| 2026-05-06 23:10 | 37.82665 | -77.52129 | 4138 ft | 126 kts | 158° |
| 2026-05-06 23:10 | 37.81931 | -77.51565 | 4010 ft | 120 kts | 164° |
| 2026-05-06 23:10 | 37.81186 | -77.51097 | 3853 ft | 118 kts | 169° |
| 2026-05-06 23:11 | 37.80468 | -77.50685 | 3846 ft | 110 kts | 168° |
| 2026-05-06 23:11 | 37.79741 | -77.50314 | 3691 ft | 114 kts | 173° |
| 2026-05-06 23:11 | 37.78988 | -77.49978 | 3587 ft | 117 kts | 168° |
| 2026-05-06 23:11 | 37.78300 | -77.49383 | 3432 ft | 124 kts | 153° |
| 2026-05-06 23:12 | 37.77710 | -77.48621 | 3188 ft | 117 kts | 153° |
| 2026-05-06 23:12 | 37.77114 | -77.48020 | 2816 ft | 102 kts | 161° |
| 2026-05-06 23:12 | 37.76553 | -77.47574 | 2405 ft | 93 kts | 169° |
| 2026-05-06 23:12 | 37.75983 | -77.47228 | 1996 ft | 92 kts | 166° |
| 2026-05-06 23:13 | 37.75420 | -77.46887 | 1574 ft | 88 kts | 170° |
| 2026-05-06 23:13 | 37.74855 | -77.46518 | 1196 ft | 88 kts | 162° |
| 2026-05-06 23:13 | 37.74295 | -77.46226 | 1033 ft | 90 kts | 155° |
| 2026-05-06 23:13 | 37.73746 | -77.45807 | 898 ft | 94 kts | 148° |
| 2026-05-06 23:14 | 37.73209 | -77.45389 | 752 ft | 89 kts | 155° |
| 2026-05-06 23:14 | 37.72704 | -77.45005 | 627 ft | 80 kts | 161° |
| 2026-05-06 23:14 | 37.72222 | -77.44644 | 465 ft | 83 kts | 162° |
| 2026-05-06 23:14 | 37.71725 | -77.44289 | 308 ft | 81 kts | 155° |
| 2026-05-06 23:15 | 37.71272 | -77.43941 | 212 ft | 66 kts | 160° |
| 2026-05-06 23:15 | 37.71035 | -77.43782 | 215 ft | 28 kts | 151° |
| 2026-05-06 23:15 | 37.70922 | -77.43741 | 215 ft | 9 kts | 214° |
| 2026-05-06 23:15 | 37.70907 | -77.43763 | 211 ft | 0 kts | 243° |